sensor_id;sensor_type;location;lat;lon;timestamp;P1;durP1;ratioP1;P2;durP2;ratioP2
75167;SDS011;63748;48.088;11.476;2023-01-04T00:01:14;2.90;;;1.75;;
75167;SDS011;63748;48.088;11.476;2023-01-04T00:03:41;3.20;;;1.90;;
75167;SDS011;63748;48.088;11.476;2023-01-04T00:06:07;3.17;;;1.98;;
75167;SDS011;63748;48.088;11.476;2023-01-04T00:08:34;2.15;;;1.75;;
75167;SDS011;63748;48.088;11.476;2023-01-04T00:11:01;3.50;;;1.55;;
75167;SDS011;63748;48.088;11.476;2023-01-04T00:13:28;3.40;;;1.70;;
75167;SDS011;63748;48.088;11.476;2023-01-04T00:15:54;4.00;;;2.05;;
75167;SDS011;63748;48.088;11.476;2023-01-04T00:18:20;3.25;;;1.83;;
75167;SDS011;63748;48.088;11.476;2023-01-04T00:20:47;3.60;;;1.67;;
75167;SDS011;63748;48.088;11.476;2023-01-04T00:23:13;4.40;;;2.10;;
75167;SDS011;63748;48.088;11.476;2023-01-04T00:25:39;3.38;;;1.95;;
75167;SDS011;63748;48.088;11.476;2023-01-04T00:28:05;5.30;;;2.42;;
75167;SDS011;63748;48.088;11.476;2023-01-04T00:30:31;5.57;;;2.05;;
75167;SDS011;63748;48.088;11.476;2023-01-04T00:32:57;3.72;;;1.95;;
75167;SDS011;63748;48.088;11.476;2023-01-04T00:35:23;5.15;;;2.13;;
75167;SDS011;63748;48.088;11.476;2023-01-04T00:37:49;4.00;;;2.00;;
75167;SDS011;63748;48.088;11.476;2023-01-04T00:40:16;3.25;;;2.05;;
75167;SDS011;63748;48.088;11.476;2023-01-04T00:42:42;3.15;;;1.80;;
75167;SDS011;63748;48.088;11.476;2023-01-04T00:45:08;3.75;;;2.00;;
75167;SDS011;63748;48.088;11.476;2023-01-04T00:47:34;3.20;;;1.75;;
75167;SDS011;63748;48.088;11.476;2023-01-04T00:50:00;4.97;;;2.15;;
75167;SDS011;63748;48.088;11.476;2023-01-04T00:52:28;2.85;;;1.83;;
75167;SDS011;63748;48.088;11.476;2023-01-04T00:54:54;2.25;;;1.52;;
75167;SDS011;63748;48.088;11.476;2023-01-04T00:57:20;3.10;;;1.63;;
75167;SDS011;63748;48.088;11.476;2023-01-04T00:59:46;2.97;;;1.60;;
75167;SDS011;63748;48.088;11.476;2023-01-04T01:02:12;2.88;;;1.48;;
75167;SDS011;63748;48.088;11.476;2023-01-04T01:04:38;2.72;;;1.60;;
75167;SDS011;63748;48.088;11.476;2023-01-04T01:07:04;3.13;;;1.77;;
75167;SDS011;63748;48.088;11.476;2023-01-04T01:09:30;2.67;;;1.40;;
75167;SDS011;63748;48.088;11.476;2023-01-04T01:11:56;2.80;;;1.63;;
75167;SDS011;63748;48.088;11.476;2023-01-04T01:14:23;3.05;;;1.60;;
75167;SDS011;63748;48.088;11.476;2023-01-04T01:16:49;3.38;;;2.00;;
75167;SDS011;63748;48.088;11.476;2023-01-04T01:19:16;3.35;;;1.50;;
75167;SDS011;63748;48.088;11.476;2023-01-04T01:21:42;4.32;;;1.65;;
75167;SDS011;63748;48.088;11.476;2023-01-04T01:24:10;3.65;;;1.67;;
75167;SDS011;63748;48.088;11.476;2023-01-04T01:26:40;3.65;;;1.90;;
75167;SDS011;63748;48.088;11.476;2023-01-04T01:29:06;3.47;;;1.58;;
75167;SDS011;63748;48.088;11.476;2023-01-04T01:31:32;6.97;;;2.47;;
75167;SDS011;63748;48.088;11.476;2023-01-04T01:33:58;6.10;;;2.42;;
75167;SDS011;63748;48.088;11.476;2023-01-04T01:36:26;6.25;;;2.20;;
75167;SDS011;63748;48.088;11.476;2023-01-04T01:38:52;7.55;;;2.45;;
75167;SDS011;63748;48.088;11.476;2023-01-04T01:41:25;8.27;;;2.78;;
75167;SDS011;63748;48.088;11.476;2023-01-04T01:43:59;5.07;;;2.65;;
75167;SDS011;63748;48.088;11.476;2023-01-04T01:46:27;2.88;;;1.33;;
75167;SDS011;63748;48.088;11.476;2023-01-04T01:49:01;4.05;;;1.63;;
75167;SDS011;63748;48.088;11.476;2023-01-04T01:51:28;3.83;;;2.00;;
75167;SDS011;63748;48.088;11.476;2023-01-04T01:53:56;6.03;;;3.03;;
75167;SDS011;63748;48.088;11.476;2023-01-04T01:56:24;4.65;;;2.60;;
75167;SDS011;63748;48.088;11.476;2023-01-04T01:58:52;4.38;;;3.00;;
75167;SDS011;63748;48.088;11.476;2023-01-04T02:01:19;4.78;;;2.90;;
75167;SDS011;63748;48.088;11.476;2023-01-04T02:03:45;12.30;;;4.55;;
75167;SDS011;63748;48.088;11.476;2023-01-04T02:06:12;17.40;;;5.72;;
75167;SDS011;63748;48.088;11.476;2023-01-04T02:08:39;18.80;;;6.78;;
75167;SDS011;63748;48.088;11.476;2023-01-04T02:11:06;13.38;;;5.00;;
75167;SDS011;63748;48.088;11.476;2023-01-04T02:13:32;11.63;;;4.55;;
75167;SDS011;63748;48.088;11.476;2023-01-04T02:18:52;9.32;;;4.03;;
75167;SDS011;63748;48.088;11.476;2023-01-04T02:22:27;17.13;;;5.90;;
75167;SDS011;63748;48.088;11.476;2023-01-04T02:29:25;9.50;;;4.72;;
75167;SDS011;63748;48.088;11.476;2023-01-04T02:31:53;29.15;;;8.82;;
75167;SDS011;63748;48.088;11.476;2023-01-04T02:37:07;18.95;;;6.15;;
75167;SDS011;63748;48.088;11.476;2023-01-04T02:40:01;12.57;;;4.20;;
75167;SDS011;63748;48.088;11.476;2023-01-04T02:45:17;7.90;;;3.47;;
75167;SDS011;63748;48.088;11.476;2023-01-04T02:52:56;9.63;;;3.70;;
75167;SDS011;63748;48.088;11.476;2023-01-04T02:55:23;17.23;;;4.70;;
75167;SDS011;63748;48.088;11.476;2023-01-04T02:57:55;9.73;;;4.05;;
75167;SDS011;63748;48.088;11.476;2023-01-04T03:00:29;5.18;;;3.30;;
75167;SDS011;63748;48.088;11.476;2023-01-04T03:03:05;6.10;;;3.17;;
75167;SDS011;63748;48.088;11.476;2023-01-04T03:06:01;6.78;;;3.17;;
75167;SDS011;63748;48.088;11.476;2023-01-04T03:11:07;5.95;;;3.00;;
75167;SDS011;63748;48.088;11.476;2023-01-04T03:13:52;5.20;;;3.08;;
75167;SDS011;63748;48.088;11.476;2023-01-04T03:16:21;5.90;;;2.90;;
75167;SDS011;63748;48.088;11.476;2023-01-04T03:18:50;5.80;;;2.88;;
75167;SDS011;63748;48.088;11.476;2023-01-04T03:21:17;4.93;;;3.05;;
75167;SDS011;63748;48.088;11.476;2023-01-04T03:23:43;6.50;;;3.33;;
75167;SDS011;63748;48.088;11.476;2023-01-04T03:26:34;7.80;;;3.53;;
75167;SDS011;63748;48.088;11.476;2023-01-04T03:32:09;5.97;;;3.50;;
75167;SDS011;63748;48.088;11.476;2023-01-04T03:34:55;7.53;;;3.10;;
75167;SDS011;63748;48.088;11.476;2023-01-04T03:42:55;7.05;;;2.40;;
75167;SDS011;63748;48.088;11.476;2023-01-04T03:45:53;6.63;;;2.53;;
75167;SDS011;63748;48.088;11.476;2023-01-04T03:48:46;5.97;;;3.22;;
75167;SDS011;63748;48.088;11.476;2023-01-04T03:53:47;4.40;;;2.55;;
75167;SDS011;63748;48.088;11.476;2023-01-04T03:56:14;4.18;;;2.67;;
75167;SDS011;63748;48.088;11.476;2023-01-04T03:58:40;4.20;;;2.22;;
75167;SDS011;63748;48.088;11.476;2023-01-04T04:01:06;4.78;;;2.47;;
75167;SDS011;63748;48.088;11.476;2023-01-04T04:03:32;4.90;;;2.40;;
75167;SDS011;63748;48.088;11.476;2023-01-04T04:06:17;4.47;;;2.72;;
75167;SDS011;63748;48.088;11.476;2023-01-04T04:09:02;3.85;;;2.42;;
75167;SDS011;63748;48.088;11.476;2023-01-04T04:11:28;4.32;;;2.60;;
75167;SDS011;63748;48.088;11.476;2023-01-04T04:13:54;3.10;;;1.92;;
75167;SDS011;63748;48.088;11.476;2023-01-04T04:16:20;4.72;;;1.90;;
75167;SDS011;63748;48.088;11.476;2023-01-04T04:18:46;3.80;;;2.53;;
75167;SDS011;63748;48.088;11.476;2023-01-04T04:21:13;4.22;;;2.55;;
75167;SDS011;63748;48.088;11.476;2023-01-04T04:23:39;3.22;;;2.15;;
75167;SDS011;63748;48.088;11.476;2023-01-04T04:26:05;3.72;;;2.22;;
75167;SDS011;63748;48.088;11.476;2023-01-04T04:28:32;4.07;;;2.42;;
75167;SDS011;63748;48.088;11.476;2023-01-04T04:30:58;3.90;;;2.40;;
75167;SDS011;63748;48.088;11.476;2023-01-04T04:33:24;3.17;;;1.95;;
75167;SDS011;63748;48.088;11.476;2023-01-04T04:35:50;3.95;;;2.38;;
75167;SDS011;63748;48.088;11.476;2023-01-04T04:38:17;4.72;;;2.35;;
75167;SDS011;63748;48.088;11.476;2023-01-04T04:40:43;2.90;;;1.67;;
75167;SDS011;63748;48.088;11.476;2023-01-04T04:43:28;1.98;;;1.20;;
75167;SDS011;63748;48.088;11.476;2023-01-04T04:45:54;3.17;;;1.60;;
75167;SDS011;63748;48.088;11.476;2023-01-04T04:48:20;2.72;;;1.65;;
75167;SDS011;63748;48.088;11.476;2023-01-04T04:50:46;2.28;;;1.60;;
75167;SDS011;63748;48.088;11.476;2023-01-04T04:53:12;2.75;;;1.63;;
75167;SDS011;63748;48.088;11.476;2023-01-04T04:55:38;2.85;;;1.73;;
75167;SDS011;63748;48.088;11.476;2023-01-04T04:58:04;3.20;;;1.70;;
75167;SDS011;63748;48.088;11.476;2023-01-04T05:00:30;2.95;;;1.42;;
75167;SDS011;63748;48.088;11.476;2023-01-04T05:03:00;3.33;;;2.17;;
75167;SDS011;63748;48.088;11.476;2023-01-04T05:05:26;2.80;;;1.40;;
75167;SDS011;63748;48.088;11.476;2023-01-04T05:07:53;3.03;;;1.40;;
75167;SDS011;63748;48.088;11.476;2023-01-04T05:10:19;2.15;;;1.52;;
75167;SDS011;63748;48.088;11.476;2023-01-04T05:12:45;2.15;;;1.60;;
75167;SDS011;63748;48.088;11.476;2023-01-04T05:15:24;2.20;;;1.30;;
75167;SDS011;63748;48.088;11.476;2023-01-04T05:17:50;1.98;;;1.10;;
75167;SDS011;63748;48.088;11.476;2023-01-04T05:20:16;3.42;;;1.92;;
75167;SDS011;63748;48.088;11.476;2023-01-04T05:22:42;2.47;;;1.40;;
75167;SDS011;63748;48.088;11.476;2023-01-04T05:25:08;2.80;;;1.60;;
75167;SDS011;63748;48.088;11.476;2023-01-04T05:27:35;2.85;;;1.48;;
75167;SDS011;63748;48.088;11.476;2023-01-04T05:30:02;2.70;;;1.63;;
75167;SDS011;63748;48.088;11.476;2023-01-04T05:32:47;3.22;;;1.25;;
75167;SDS011;63748;48.088;11.476;2023-01-04T05:35:13;2.45;;;1.48;;
75167;SDS011;63748;48.088;11.476;2023-01-04T05:37:39;0.93;;;0.82;;
75167;SDS011;63748;48.088;11.476;2023-01-04T05:40:05;2.15;;;1.52;;
75167;SDS011;63748;48.088;11.476;2023-01-04T05:42:31;2.38;;;1.13;;
75167;SDS011;63748;48.088;11.476;2023-01-04T05:44:57;1.75;;;1.00;;
75167;SDS011;63748;48.088;11.476;2023-01-04T05:47:24;3.38;;;1.48;;
75167;SDS011;63748;48.088;11.476;2023-01-04T05:49:50;1.42;;;1.00;;
75167;SDS011;63748;48.088;11.476;2023-01-04T05:52:16;2.13;;;1.40;;
75167;SDS011;63748;48.088;11.476;2023-01-04T05:54:43;2.53;;;1.23;;
75167;SDS011;63748;48.088;11.476;2023-01-04T05:57:09;2.20;;;1.38;;
75167;SDS011;63748;48.088;11.476;2023-01-04T05:59:35;2.80;;;1.40;;
75167;SDS011;63748;48.088;11.476;2023-01-04T06:02:01;2.15;;;1.00;;
75167;SDS011;63748;48.088;11.476;2023-01-04T06:04:27;2.80;;;1.50;;
75167;SDS011;63748;48.088;11.476;2023-01-04T06:06:53;2.72;;;1.30;;
75167;SDS011;63748;48.088;11.476;2023-01-04T06:09:19;3.83;;;1.58;;
75167;SDS011;63748;48.088;11.476;2023-01-04T06:11:45;2.95;;;1.60;;
75167;SDS011;63748;48.088;11.476;2023-01-04T06:14:12;1.75;;;1.10;;
75167;SDS011;63748;48.088;11.476;2023-01-04T06:16:38;2.13;;;1.10;;
75167;SDS011;63748;48.088;11.476;2023-01-04T06:19:04;2.17;;;1.30;;
75167;SDS011;63748;48.088;11.476;2023-01-04T06:21:30;2.30;;;1.50;;
75167;SDS011;63748;48.088;11.476;2023-01-04T06:23:56;2.15;;;1.20;;
75167;SDS011;63748;48.088;11.476;2023-01-04T06:26:22;2.97;;;1.48;;
75167;SDS011;63748;48.088;11.476;2023-01-04T06:28:48;2.53;;;1.52;;
75167;SDS011;63748;48.088;11.476;2023-01-04T06:31:14;2.75;;;1.48;;
75167;SDS011;63748;48.088;11.476;2023-01-04T06:33:40;2.45;;;1.38;;
75167;SDS011;63748;48.088;11.476;2023-01-04T06:36:06;3.33;;;1.42;;
75167;SDS011;63748;48.088;11.476;2023-01-04T06:38:32;2.33;;;1.65;;
75167;SDS011;63748;48.088;11.476;2023-01-04T06:40:58;2.30;;;1.40;;
75167;SDS011;63748;48.088;11.476;2023-01-04T06:43:25;2.60;;;1.38;;
75167;SDS011;63748;48.088;11.476;2023-01-04T06:45:51;2.05;;;1.50;;
75167;SDS011;63748;48.088;11.476;2023-01-04T06:48:17;2.05;;;1.27;;
75167;SDS011;63748;48.088;11.476;2023-01-04T06:50:43;2.15;;;1.52;;
75167;SDS011;63748;48.088;11.476;2023-01-04T06:53:09;2.05;;;1.27;;
75167;SDS011;63748;48.088;11.476;2023-01-04T06:55:35;2.42;;;1.25;;
75167;SDS011;63748;48.088;11.476;2023-01-04T06:58:01;2.50;;;1.17;;
75167;SDS011;63748;48.088;11.476;2023-01-04T07:00:27;2.38;;;1.58;;
75167;SDS011;63748;48.088;11.476;2023-01-04T07:02:53;1.83;;;1.27;;
75167;SDS011;63748;48.088;11.476;2023-01-04T07:05:19;2.30;;;1.20;;
75167;SDS011;63748;48.088;11.476;2023-01-04T07:07:45;2.20;;;1.50;;
75167;SDS011;63748;48.088;11.476;2023-01-04T07:10:11;4.28;;;1.95;;
75167;SDS011;63748;48.088;11.476;2023-01-04T07:12:37;3.40;;;2.00;;
75167;SDS011;63748;48.088;11.476;2023-01-04T07:15:04;3.17;;;1.63;;
75167;SDS011;63748;48.088;11.476;2023-01-04T07:17:30;2.72;;;1.42;;
75167;SDS011;63748;48.088;11.476;2023-01-04T07:19:56;3.05;;;1.58;;
75167;SDS011;63748;48.088;11.476;2023-01-04T07:22:22;2.40;;;1.20;;
75167;SDS011;63748;48.088;11.476;2023-01-04T07:24:48;2.20;;;1.50;;
75167;SDS011;63748;48.088;11.476;2023-01-04T07:27:14;2.47;;;1.30;;
75167;SDS011;63748;48.088;11.476;2023-01-04T07:29:40;1.95;;;1.23;;
75167;SDS011;63748;48.088;11.476;2023-01-04T07:32:08;2.63;;;1.63;;
75167;SDS011;63748;48.088;11.476;2023-01-04T07:34:35;2.65;;;0.98;;
75167;SDS011;63748;48.088;11.476;2023-01-04T07:37:01;2.17;;;1.13;;
75167;SDS011;63748;48.088;11.476;2023-01-04T07:39:27;1.00;;;0.73;;
75167;SDS011;63748;48.088;11.476;2023-01-04T07:41:53;1.80;;;0.95;;
75167;SDS011;63748;48.088;11.476;2023-01-04T07:44:19;2.25;;;1.15;;
75167;SDS011;63748;48.088;11.476;2023-01-04T07:46:46;2.28;;;1.08;;
75167;SDS011;63748;48.088;11.476;2023-01-04T07:49:13;1.77;;;0.80;;
75167;SDS011;63748;48.088;11.476;2023-01-04T07:51:39;1.88;;;0.85;;
75167;SDS011;63748;48.088;11.476;2023-01-04T07:54:06;1.25;;;0.60;;
75167;SDS011;63748;48.088;11.476;2023-01-04T07:56:32;1.23;;;0.82;;
75167;SDS011;63748;48.088;11.476;2023-01-04T07:58:58;1.38;;;0.98;;
75167;SDS011;63748;48.088;11.476;2023-01-04T08:01:25;1.70;;;0.93;;
75167;SDS011;63748;48.088;11.476;2023-01-04T08:03:51;2.67;;;1.30;;
75167;SDS011;63748;48.088;11.476;2023-01-04T08:06:17;2.03;;;0.90;;
75167;SDS011;63748;48.088;11.476;2023-01-04T08:08:44;1.75;;;1.20;;
75167;SDS011;63748;48.088;11.476;2023-01-04T08:11:14;1.55;;;1.05;;
75167;SDS011;63748;48.088;11.476;2023-01-04T08:13:41;3.55;;;1.25;;
75167;SDS011;63748;48.088;11.476;2023-01-04T08:16:07;1.42;;;0.88;;
75167;SDS011;63748;48.088;11.476;2023-01-04T08:18:33;2.33;;;1.35;;
75167;SDS011;63748;48.088;11.476;2023-01-04T08:21:03;1.98;;;1.10;;
75167;SDS011;63748;48.088;11.476;2023-01-04T08:23:29;2.53;;;1.60;;
75167;SDS011;63748;48.088;11.476;2023-01-04T08:26:00;1.45;;;0.80;;
75167;SDS011;63748;48.088;11.476;2023-01-04T08:28:26;2.45;;;1.48;;
75167;SDS011;63748;48.088;11.476;2023-01-04T08:30:52;1.92;;;0.75;;
75167;SDS011;63748;48.088;11.476;2023-01-04T08:33:18;2.45;;;1.02;;
75167;SDS011;63748;48.088;11.476;2023-01-04T08:35:44;1.17;;;0.85;;
75167;SDS011;63748;48.088;11.476;2023-01-04T08:38:10;2.03;;;1.15;;
75167;SDS011;63748;48.088;11.476;2023-01-04T08:40:36;1.80;;;0.93;;
75167;SDS011;63748;48.088;11.476;2023-01-04T08:43:02;0.90;;;0.80;;
75167;SDS011;63748;48.088;11.476;2023-01-04T08:45:28;2.15;;;1.00;;
75167;SDS011;63748;48.088;11.476;2023-01-04T08:47:54;1.70;;;1.20;;
75167;SDS011;63748;48.088;11.476;2023-01-04T08:50:20;2.38;;;1.10;;
75167;SDS011;63748;48.088;11.476;2023-01-04T08:52:46;1.33;;;0.63;;
75167;SDS011;63748;48.088;11.476;2023-01-04T08:55:12;1.27;;;0.98;;
75167;SDS011;63748;48.088;11.476;2023-01-04T08:57:40;2.20;;;1.10;;
75167;SDS011;63748;48.088;11.476;2023-01-04T09:00:06;1.95;;;0.85;;
75167;SDS011;63748;48.088;11.476;2023-01-04T09:02:33;1.40;;;0.90;;
75167;SDS011;63748;48.088;11.476;2023-01-04T09:04:59;1.77;;;1.15;;
75167;SDS011;63748;48.088;11.476;2023-01-04T09:09:53;1.15;;;0.50;;
75167;SDS011;63748;48.088;11.476;2023-01-04T09:12:19;1.40;;;0.90;;
75167;SDS011;63748;48.088;11.476;2023-01-04T09:14:45;3.38;;;1.02;;
75167;SDS011;63748;48.088;11.476;2023-01-04T09:17:11;1.08;;;0.77;;
75167;SDS011;63748;48.088;11.476;2023-01-04T09:19:37;2.95;;;1.20;;
75167;SDS011;63748;48.088;11.476;2023-01-04T09:22:04;2.05;;;0.95;;
75167;SDS011;63748;48.088;11.476;2023-01-04T09:24:31;2.85;;;1.15;;
75167;SDS011;63748;48.088;11.476;2023-01-04T09:26:57;1.25;;;0.95;;
75167;SDS011;63748;48.088;11.476;2023-01-04T09:29:23;2.35;;;1.25;;
75167;SDS011;63748;48.088;11.476;2023-01-04T09:31:51;1.77;;;1.02;;
75167;SDS011;63748;48.088;11.476;2023-01-04T09:34:17;2.03;;;1.15;;
75167;SDS011;63748;48.088;11.476;2023-01-04T09:36:44;2.22;;;0.82;;
75167;SDS011;63748;48.088;11.476;2023-01-04T09:39:10;1.25;;;0.73;;
75167;SDS011;63748;48.088;11.476;2023-01-04T09:41:38;1.65;;;1.10;;
75167;SDS011;63748;48.088;11.476;2023-01-04T09:46:36;1.27;;;0.70;;
75167;SDS011;63748;48.088;11.476;2023-01-04T09:51:31;2.13;;;1.30;;
75167;SDS011;63748;48.088;11.476;2023-01-04T09:54:06;1.45;;;1.13;;
75167;SDS011;63748;48.088;11.476;2023-01-04T09:56:36;2.75;;;0.88;;
75167;SDS011;63748;48.088;11.476;2023-01-04T09:59:06;2.08;;;0.75;;
75167;SDS011;63748;48.088;11.476;2023-01-04T10:01:50;2.22;;;1.00;;
75167;SDS011;63748;48.088;11.476;2023-01-04T10:04:19;1.35;;;0.70;;
75167;SDS011;63748;48.088;11.476;2023-01-04T10:06:48;1.23;;;0.65;;
75167;SDS011;63748;48.088;11.476;2023-01-04T10:09:16;1.25;;;0.60;;
75167;SDS011;63748;48.088;11.476;2023-01-04T10:22:09;0.75;;;0.50;;
75167;SDS011;63748;48.088;11.476;2023-01-04T10:30:05;1.40;;;0.52;;
75167;SDS011;63748;48.088;11.476;2023-01-04T10:32:40;1.55;;;0.63;;
75167;SDS011;63748;48.088;11.476;2023-01-04T10:35:22;1.42;;;0.65;;
75167;SDS011;63748;48.088;11.476;2023-01-04T10:37:53;0.35;;;0.30;;
75167;SDS011;63748;48.088;11.476;2023-01-04T10:40:22;0.60;;;0.32;;
75167;SDS011;63748;48.088;11.476;2023-01-04T10:46:12;1.33;;;0.73;;
75167;SDS011;63748;48.088;11.476;2023-01-04T10:51:28;1.38;;;0.73;;
75167;SDS011;63748;48.088;11.476;2023-01-04T10:54:01;0.45;;;0.40;;
75167;SDS011;63748;48.088;11.476;2023-01-04T10:56:31;0.98;;;0.38;;
75167;SDS011;63748;48.088;11.476;2023-01-04T11:01:28;0.82;;;0.30;;
75167;SDS011;63748;48.088;11.476;2023-01-04T11:06:24;0.90;;;0.70;;
75167;SDS011;63748;48.088;11.476;2023-01-04T11:08:53;0.90;;;0.75;;
75167;SDS011;63748;48.088;11.476;2023-01-04T11:11:23;0.45;;;0.22;;
75167;SDS011;63748;48.088;11.476;2023-01-04T11:13:50;0.73;;;0.40;;
75167;SDS011;63748;48.088;11.476;2023-01-04T11:16:16;1.73;;;0.70;;
75167;SDS011;63748;48.088;11.476;2023-01-04T11:18:42;0.88;;;0.50;;
75167;SDS011;63748;48.088;11.476;2023-01-04T11:21:11;1.45;;;0.50;;
75167;SDS011;63748;48.088;11.476;2023-01-04T11:23:38;0.35;;;0.22;;
75167;SDS011;63748;48.088;11.476;2023-01-04T11:26:12;0.47;;;0.40;;
75167;SDS011;63748;48.088;11.476;2023-01-04T11:28:48;1.10;;;0.40;;
75167;SDS011;63748;48.088;11.476;2023-01-04T11:31:27;0.73;;;0.40;;
75167;SDS011;63748;48.088;11.476;2023-01-04T11:38:56;0.52;;;0.38;;
75167;SDS011;63748;48.088;11.476;2023-01-04T11:41:23;0.80;;;0.50;;
75167;SDS011;63748;48.088;11.476;2023-01-04T11:43:56;2.17;;;0.38;;
75167;SDS011;63748;48.088;11.476;2023-01-04T11:46:23;0.43;;;0.30;;
75167;SDS011;63748;48.088;11.476;2023-01-04T11:48:49;1.02;;;0.52;;
75167;SDS011;63748;48.088;11.476;2023-01-04T11:51:32;0.45;;;0.30;;
75167;SDS011;63748;48.088;11.476;2023-01-04T11:53:59;0.85;;;0.45;;
75167;SDS011;63748;48.088;11.476;2023-01-04T11:56:29;0.73;;;0.38;;
75167;SDS011;63748;48.088;11.476;2023-01-04T12:01:28;0.77;;;0.50;;
75167;SDS011;63748;48.088;11.476;2023-01-04T12:03:54;1.20;;;0.32;;
75167;SDS011;63748;48.088;11.476;2023-01-04T12:06:23;1.58;;;0.75;;
75167;SDS011;63748;48.088;11.476;2023-01-04T12:08:49;0.50;;;0.32;;
75167;SDS011;63748;48.088;11.476;2023-01-04T12:11:22;0.40;;;0.40;;
75167;SDS011;63748;48.088;11.476;2023-01-04T12:13:50;4.22;;;0.47;;
75167;SDS011;63748;48.088;11.476;2023-01-04T12:19:01;1.00;;;0.40;;
75167;SDS011;63748;48.088;11.476;2023-01-04T12:21:30;0.10;;;0.10;;
75167;SDS011;63748;48.088;11.476;2023-01-04T12:23:57;0.52;;;0.40;;
75167;SDS011;63748;48.088;11.476;2023-01-04T12:26:23;0.10;;;0.10;;
75167;SDS011;63748;48.088;11.476;2023-01-04T12:28:50;0.30;;;0.30;;
75167;SDS011;63748;48.088;11.476;2023-01-04T12:33:50;0.20;;;0.20;;
75167;SDS011;63748;48.088;11.476;2023-01-04T12:41:18;0.63;;;0.50;;
75167;SDS011;63748;48.088;11.476;2023-01-04T12:43:44;0.20;;;0.20;;
75167;SDS011;63748;48.088;11.476;2023-01-04T12:54:44;0.65;;;0.22;;
75167;SDS011;63748;48.088;11.476;2023-01-04T12:59:56;0.20;;;0.20;;
75167;SDS011;63748;48.088;11.476;2023-01-04T13:02:26;0.17;;;0.17;;
75167;SDS011;63748;48.088;11.476;2023-01-04T13:04:55;0.32;;;0.20;;
75167;SDS011;63748;48.088;11.476;2023-01-04T13:07:28;0.20;;;0.20;;
75167;SDS011;63748;48.088;11.476;2023-01-04T13:09:56;0.10;;;0.10;;
75167;SDS011;63748;48.088;11.476;2023-01-04T13:13:05;0.40;;;0.40;;
75167;SDS011;63748;48.088;11.476;2023-01-04T13:15:15;0.65;;;0.43;;
75167;SDS011;63748;48.088;11.476;2023-01-04T13:17:44;1.48;;;0.20;;
75167;SDS011;63748;48.088;11.476;2023-01-04T13:20:14;0.38;;;0.20;;
75167;SDS011;63748;48.088;11.476;2023-01-04T13:22:42;0.30;;;0.10;;
75167;SDS011;63748;48.088;11.476;2023-01-04T13:25:11;0.68;;;0.30;;
75167;SDS011;63748;48.088;11.476;2023-01-04T13:27:38;0.10;;;0.10;;
75167;SDS011;63748;48.088;11.476;2023-01-04T13:30:28;0.20;;;0.20;;
75167;SDS011;63748;48.088;11.476;2023-01-04T13:32:54;0.20;;;0.20;;
75167;SDS011;63748;48.088;11.476;2023-01-04T13:35:21;0.30;;;0.30;;
75167;SDS011;63748;48.088;11.476;2023-01-04T13:37:47;0.28;;;0.20;;
75167;SDS011;63748;48.088;11.476;2023-01-04T13:40:31;0.47;;;0.20;;
75167;SDS011;63748;48.088;11.476;2023-01-04T13:48:34;0.93;;;0.20;;
75167;SDS011;63748;48.088;11.476;2023-01-04T13:51:21;0.13;;;0.13;;
75167;SDS011;63748;48.088;11.476;2023-01-04T13:56:18;0.10;;;0.10;;
75167;SDS011;63748;48.088;11.476;2023-01-04T13:58:45;0.40;;;0.20;;
75167;SDS011;63748;48.088;11.476;2023-01-04T14:01:30;0.20;;;0.20;;
75167;SDS011;63748;48.088;11.476;2023-01-04T14:04:00;0.20;;;0.10;;
75167;SDS011;63748;48.088;11.476;2023-01-04T14:06:28;0.20;;;0.13;;
75167;SDS011;63748;48.088;11.476;2023-01-04T14:12:07;0.25;;;0.25;;
75167;SDS011;63748;48.088;11.476;2023-01-04T14:16:49;0.25;;;0.20;;
75167;SDS011;63748;48.088;11.476;2023-01-04T14:21:57;0.32;;;0.28;;
75167;SDS011;63748;48.088;11.476;2023-01-04T14:24:30;1.30;;;0.13;;
75167;SDS011;63748;48.088;11.476;2023-01-04T14:26:56;0.40;;;0.25;;
75167;SDS011;63748;48.088;11.476;2023-01-04T14:29:27;0.52;;;0.30;;
75167;SDS011;63748;48.088;11.476;2023-01-04T14:31:55;0.93;;;0.73;;
75167;SDS011;63748;48.088;11.476;2023-01-04T14:34:21;0.50;;;0.40;;
75167;SDS011;63748;48.088;11.476;2023-01-04T14:36:47;1.02;;;0.22;;
75167;SDS011;63748;48.088;11.476;2023-01-04T14:39:17;0.88;;;0.30;;
75167;SDS011;63748;48.088;11.476;2023-01-04T14:44:17;0.65;;;0.10;;
75167;SDS011;63748;48.088;11.476;2023-01-04T14:46:49;1.00;;;0.13;;
75167;SDS011;63748;48.088;11.476;2023-01-04T14:49:15;0.20;;;0.10;;
75167;SDS011;63748;48.088;11.476;2023-01-04T14:54:12;0.73;;;0.10;;
75167;SDS011;63748;48.088;11.476;2023-01-04T14:56:39;0.10;;;0.10;;
75167;SDS011;63748;48.088;11.476;2023-01-04T14:59:06;0.40;;;0.30;;
75167;SDS011;63748;48.088;11.476;2023-01-04T15:01:32;1.80;;;0.30;;
75167;SDS011;63748;48.088;11.476;2023-01-04T15:03:58;0.57;;;0.20;;
75167;SDS011;63748;48.088;11.476;2023-01-04T15:06:24;0.10;;;0.10;;
75167;SDS011;63748;48.088;11.476;2023-01-04T15:08:50;0.17;;;0.17;;
75167;SDS011;63748;48.088;11.476;2023-01-04T15:11:17;0.10;;;0.10;;
75167;SDS011;63748;48.088;11.476;2023-01-04T15:13:43;1.73;;;0.52;;
75167;SDS011;63748;48.088;11.476;2023-01-04T15:16:10;1.13;;;0.68;;
75167;SDS011;63748;48.088;11.476;2023-01-04T15:18:37;0.40;;;0.32;;
75167;SDS011;63748;48.088;11.476;2023-01-04T15:21:04;0.80;;;0.50;;
75167;SDS011;63748;48.088;11.476;2023-01-04T15:23:30;0.93;;;0.47;;
75167;SDS011;63748;48.088;11.476;2023-01-04T15:25:56;0.38;;;0.28;;
75167;SDS011;63748;48.088;11.476;2023-01-04T15:28:22;0.28;;;0.28;;
75167;SDS011;63748;48.088;11.476;2023-01-04T15:30:50;5.78;;;1.90;;
75167;SDS011;63748;48.088;11.476;2023-01-04T15:33:16;1.98;;;1.02;;
75167;SDS011;63748;48.088;11.476;2023-01-04T15:35:42;0.68;;;0.20;;
75167;SDS011;63748;48.088;11.476;2023-01-04T15:38:08;0.63;;;0.63;;
75167;SDS011;63748;48.088;11.476;2023-01-04T15:40:34;0.60;;;0.32;;
75167;SDS011;63748;48.088;11.476;2023-01-04T15:43:01;0.40;;;0.30;;
75167;SDS011;63748;48.088;11.476;2023-01-04T15:45:33;0.20;;;0.20;;
75167;SDS011;63748;48.088;11.476;2023-01-04T15:48:01;0.55;;;0.20;;
75167;SDS011;63748;48.088;11.476;2023-01-04T15:50:31;0.43;;;0.30;;
75167;SDS011;63748;48.088;11.476;2023-01-04T15:52:58;0.43;;;0.20;;
75167;SDS011;63748;48.088;11.476;2023-01-04T15:55:24;0.38;;;0.30;;
75167;SDS011;63748;48.088;11.476;2023-01-04T15:57:50;1.15;;;0.50;;
75167;SDS011;63748;48.088;11.476;2023-01-04T16:00:16;1.08;;;0.50;;
75167;SDS011;63748;48.088;11.476;2023-01-04T16:02:43;1.08;;;0.40;;
75167;SDS011;63748;48.088;11.476;2023-01-04T16:05:09;1.48;;;0.68;;
75167;SDS011;63748;48.088;11.476;2023-01-04T16:07:35;1.10;;;0.40;;
75167;SDS011;63748;48.088;11.476;2023-01-04T16:10:01;1.00;;;0.47;;
75167;SDS011;63748;48.088;11.476;2023-01-04T16:12:27;1.10;;;0.70;;
75167;SDS011;63748;48.088;11.476;2023-01-04T16:15:18;2.15;;;0.93;;
75167;SDS011;63748;48.088;11.476;2023-01-04T16:17:45;0.43;;;0.32;;
75167;SDS011;63748;48.088;11.476;2023-01-04T16:20:12;0.52;;;0.40;;
75167;SDS011;63748;48.088;11.476;2023-01-04T16:22:39;0.47;;;0.47;;
75167;SDS011;63748;48.088;11.476;2023-01-04T16:25:05;0.22;;;0.10;;
75167;SDS011;63748;48.088;11.476;2023-01-04T16:27:32;0.28;;;0.20;;
75167;SDS011;63748;48.088;11.476;2023-01-04T16:30:00;0.55;;;0.52;;
75167;SDS011;63748;48.088;11.476;2023-01-04T16:32:26;1.17;;;0.50;;
75167;SDS011;63748;48.088;11.476;2023-01-04T16:34:52;0.80;;;0.50;;
75167;SDS011;63748;48.088;11.476;2023-01-04T16:37:18;1.38;;;0.57;;